sensor_id;sensor_type;location;lat;lon;timestamp;temperature;humidity
13496;DHT22;6820;49.374;8.452;2024-03-08T00:01:20;7.58;99.99
13496;DHT22;6820;49.374;8.452;2024-03-08T00:05:21;7.51;99.99
13496;DHT22;6820;49.374;8.452;2024-03-08T00:09:23;7.44;99.99
13496;DHT22;6820;49.374;8.452;2024-03-08T00:13:25;7.37;99.99
13496;DHT22;6820;49.374;8.452;2024-03-08T00:17:27;7.34;99.99
13496;DHT22;6820;49.374;8.452;2024-03-08T00:21:29;7.32;99.99
13496;DHT22;6820;49.374;8.452;2024-03-08T00:25:30;7.26;99.99
13496;DHT22;6820;49.374;8.452;2024-03-08T00:29:32;7.19;99.99
13496;DHT22;6820;49.374;8.452;2024-03-08T00:33:34;7.15;99.99
13496;DHT22;6820;49.374;8.452;2024-03-08T00:37:35;7.11;99.99
13496;DHT22;6820;49.374;8.452;2024-03-08T00:41:37;7.05;99.99
13496;DHT22;6820;49.374;8.452;2024-03-08T00:45:39;7.00;99.99
13496;DHT22;6820;49.374;8.452;2024-03-08T00:49:43;6.96;99.99
13496;DHT22;6820;49.374;8.452;2024-03-08T00:53:45;6.91;99.99
13496;DHT22;6820;49.374;8.452;2024-03-08T00:57:48;6.87;99.99
13496;DHT22;6820;49.374;8.452;2024-03-08T01:01:49;6.83;99.99
13496;DHT22;6820;49.374;8.452;2024-03-08T01:05:51;6.82;99.99
13496;DHT22;6820;49.374;8.452;2024-03-08T01:09:53;6.78;99.99
13496;DHT22;6820;49.374;8.452;2024-03-08T01:13:54;6.75;99.99
13496;DHT22;6820;49.374;8.452;2024-03-08T01:17:56;6.71;99.99
13496;DHT22;6820;49.374;8.452;2024-03-08T01:21:58;6.63;99.99
13496;DHT22;6820;49.374;8.452;2024-03-08T01:26:00;6.60;99.99
13496;DHT22;6820;49.374;8.452;2024-03-08T01:30:03;6.54;99.99
13496;DHT22;6820;49.374;8.452;2024-03-08T01:34:06;6.50;99.99
13496;DHT22;6820;49.374;8.452;2024-03-08T01:38:07;6.46;99.99
13496;DHT22;6820;49.374;8.452;2024-03-08T01:42:09;6.40;99.99
13496;DHT22;6820;49.374;8.452;2024-03-08T01:46:14;6.39;99.99
13496;DHT22;6820;49.374;8.452;2024-03-08T01:50:20;6.36;99.99
13496;DHT22;6820;49.374;8.452;2024-03-08T01:54:21;6.35;99.99
13496;DHT22;6820;49.374;8.452;2024-03-08T01:58:26;6.30;99.99
13496;DHT22;6820;49.374;8.452;2024-03-08T02:02:30;6.25;99.99
13496;DHT22;6820;49.374;8.452;2024-03-08T02:06:33;6.17;99.99
13496;DHT22;6820;49.374;8.452;2024-03-08T02:10:35;6.14;99.99
13496;DHT22;6820;49.374;8.452;2024-03-08T02:14:37;6.11;99.99
13496;DHT22;6820;49.374;8.452;2024-03-08T02:18:39;6.10;99.99
13496;DHT22;6820;49.374;8.452;2024-03-08T02:22:41;6.10;99.99
13496;DHT22;6820;49.374;8.452;2024-03-08T02:26:43;6.06;99.99
13496;DHT22;6820;49.374;8.452;2024-03-08T02:30:48;6.02;99.99
13496;DHT22;6820;49.374;8.452;2024-03-08T02:34:56;5.98;99.99
13496;DHT22;6820;49.374;8.452;2024-03-08T02:38:58;5.95;99.99
13496;DHT22;6820;49.374;8.452;2024-03-08T02:43:00;5.90;99.99
13496;DHT22;6820;49.374;8.452;2024-03-08T02:47:01;5.88;99.99
13496;DHT22;6820;49.374;8.452;2024-03-08T02:51:03;5.85;99.99
13496;DHT22;6820;49.374;8.452;2024-03-08T02:55:05;5.81;99.99
13496;DHT22;6820;49.374;8.452;2024-03-08T02:59:07;5.80;99.99
13496;DHT22;6820;49.374;8.452;2024-03-08T03:03:09;5.75;99.99
13496;DHT22;6820;49.374;8.452;2024-03-08T03:07:11;5.73;99.99
13496;DHT22;6820;49.374;8.452;2024-03-08T03:11:13;5.69;99.99
13496;DHT22;6820;49.374;8.452;2024-03-08T03:15:15;5.63;99.99
13496;DHT22;6820;49.374;8.452;2024-03-08T03:19:20;5.60;99.99
13496;DHT22;6820;49.374;8.452;2024-03-08T03:23:21;5.59;99.99
13496;DHT22;6820;49.374;8.452;2024-03-08T03:27:24;5.56;99.99
13496;DHT22;6820;49.374;8.452;2024-03-08T03:31:26;5.55;99.99
13496;DHT22;6820;49.374;8.452;2024-03-08T03:35:28;5.51;99.99
13496;DHT22;6820;49.374;8.452;2024-03-08T03:39:30;5.47;99.99
13496;DHT22;6820;49.374;8.452;2024-03-08T03:43:33;5.42;99.99
13496;DHT22;6820;49.374;8.452;2024-03-08T03:47:35;5.41;99.99
13496;DHT22;6820;49.374;8.452;2024-03-08T03:51:36;5.38;99.99
13496;DHT22;6820;49.374;8.452;2024-03-08T03:55:38;5.35;99.99
13496;DHT22;6820;49.374;8.452;2024-03-08T03:59:42;5.30;99.99
13496;DHT22;6820;49.374;8.452;2024-03-08T04:03:44;5.30;99.99
13496;DHT22;6820;49.374;8.452;2024-03-08T04:07:45;5.27;99.99
13496;DHT22;6820;49.374;8.452;2024-03-08T04:11:47;5.26;99.99
13496;DHT22;6820;49.374;8.452;2024-03-08T04:15:49;5.23;99.99
13496;DHT22;6820;49.374;8.452;2024-03-08T04:19:51;5.20;99.99
13496;DHT22;6820;49.374;8.452;2024-03-08T04:23:52;5.20;99.99
13496;DHT22;6820;49.374;8.452;2024-03-08T04:27:54;5.19;99.99
13496;DHT22;6820;49.374;8.452;2024-03-08T04:31:56;5.15;99.99
13496;DHT22;6820;49.374;8.452;2024-03-08T04:35:57;5.15;99.99
13496;DHT22;6820;49.374;8.452;2024-03-08T04:39:59;5.12;99.99
13496;DHT22;6820;49.374;8.452;2024-03-08T04:44:01;5.06;99.99
13496;DHT22;6820;49.374;8.452;2024-03-08T04:48:03;5.08;99.99
13496;DHT22;6820;49.374;8.452;2024-03-08T04:52:05;5.02;99.99
13496;DHT22;6820;49.374;8.452;2024-03-08T04:56:08;5.01;99.99
13496;DHT22;6820;49.374;8.452;2024-03-08T05:00:10;4.97;99.99
13496;DHT22;6820;49.374;8.452;2024-03-08T05:04:13;4.96;99.99
13496;DHT22;6820;49.374;8.452;2024-03-08T05:08:15;4.94;99.99
13496;DHT22;6820;49.374;8.452;2024-03-08T05:12:20;4.91;99.99
13496;DHT22;6820;49.374;8.452;2024-03-08T05:16:21;4.90;99.99
13496;DHT22;6820;49.374;8.452;2024-03-08T05:20:24;4.87;99.99
13496;DHT22;6820;49.374;8.452;2024-03-08T05:24:25;4.83;99.99
13496;DHT22;6820;49.374;8.452;2024-03-08T05:28:27;4.80;99.99
13496;DHT22;6820;49.374;8.452;2024-03-08T05:32:29;4.80;99.99
13496;DHT22;6820;49.374;8.452;2024-03-08T05:36:32;4.77;99.99
13496;DHT22;6820;49.374;8.452;2024-03-08T05:40:33;4.74;99.99
13496;DHT22;6820;49.374;8.452;2024-03-08T05:44:35;4.71;99.99
13496;DHT22;6820;49.374;8.452;2024-03-08T05:48:37;4.69;99.99
13496;DHT22;6820;49.374;8.452;2024-03-08T05:52:39;4.68;99.99
13496;DHT22;6820;49.374;8.452;2024-03-08T05:56:42;4.65;99.99
13496;DHT22;6820;49.374;8.452;2024-03-08T06:00:44;4.65;99.99
13496;DHT22;6820;49.374;8.452;2024-03-08T06:04:50;4.64;99.99
13496;DHT22;6820;49.374;8.452;2024-03-08T06:08:52;4.62;99.99
13496;DHT22;6820;49.374;8.452;2024-03-08T06:12:54;4.62;99.99
13496;DHT22;6820;49.374;8.452;2024-03-08T06:16:56;4.59;99.99
13496;DHT22;6820;49.374;8.452;2024-03-08T06:20:57;4.62;99.99
13496;DHT22;6820;49.374;8.452;2024-03-08T06:24:59;4.57;99.99
13496;DHT22;6820;49.374;8.452;2024-03-08T06:29:01;4.61;99.99
13496;DHT22;6820;49.374;8.452;2024-03-08T06:33:02;4.65;99.99
13496;DHT22;6820;49.374;8.452;2024-03-08T06:37:04;4.62;99.99
13496;DHT22;6820;49.374;8.452;2024-03-08T06:41:06;4.65;99.99
13496;DHT22;6820;49.374;8.452;2024-03-08T06:45:08;4.67;99.99
13496;DHT22;6820;49.374;8.452;2024-03-08T06:49:11;4.69;99.99
13496;DHT22;6820;49.374;8.452;2024-03-08T06:53:13;4.74;99.99
13496;DHT22;6820;49.374;8.452;2024-03-08T06:57:15;4.79;99.99
13496;DHT22;6820;49.374;8.452;2024-03-08T07:01:18;4.83;99.99
13496;DHT22;6820;49.374;8.452;2024-03-08T07:05:24;4.84;99.99
13496;DHT22;6820;49.374;8.452;2024-03-08T07:09:31;4.88;99.99
13496;DHT22;6820;49.374;8.452;2024-03-08T07:13:33;4.88;99.99
13496;DHT22;6820;49.374;8.452;2024-03-08T07:17:35;4.94;99.99
13496;DHT22;6820;49.374;8.452;2024-03-08T07:21:37;4.99;99.99
13496;DHT22;6820;49.374;8.452;2024-03-08T07:25:38;5.02;99.99
13496;DHT22;6820;49.374;8.452;2024-03-08T07:29:40;5.06;99.99
13496;DHT22;6820;49.374;8.452;2024-03-08T07:33:43;5.12;99.99
13496;DHT22;6820;49.374;8.452;2024-03-08T07:37:45;5.19;99.99
13496;DHT22;6820;49.374;8.452;2024-03-08T07:41:47;5.26;99.99
13496;DHT22;6820;49.374;8.452;2024-03-08T07:45:49;5.32;99.99
13496;DHT22;6820;49.374;8.452;2024-03-08T07:49:52;5.40;99.99
13496;DHT22;6820;49.374;8.452;2024-03-08T07:53:55;5.40;99.99
13496;DHT22;6820;49.374;8.452;2024-03-08T07:57:58;5.42;99.99
13496;DHT22;6820;49.374;8.452;2024-03-08T08:02:00;5.51;99.99
13496;DHT22;6820;49.374;8.452;2024-03-08T08:06:04;5.60;99.99
13496;DHT22;6820;49.374;8.452;2024-03-08T08:10:06;5.62;99.99
13496;DHT22;6820;49.374;8.452;2024-03-08T08:14:09;5.70;99.99
13496;DHT22;6820;49.374;8.452;2024-03-08T08:18:13;5.80;99.99
13496;DHT22;6820;49.374;8.452;2024-03-08T08:22:15;5.85;99.99
13496;DHT22;6820;49.374;8.452;2024-03-08T08:26:17;5.96;99.99
13496;DHT22;6820;49.374;8.452;2024-03-08T08:30:19;6.05;99.99
13496;DHT22;6820;49.374;8.452;2024-03-08T08:34:21;6.13;99.99
13496;DHT22;6820;49.374;8.452;2024-03-08T08:38:25;6.25;99.99
13496;DHT22;6820;49.374;8.452;2024-03-08T08:42:27;6.32;99.99
13496;DHT22;6820;49.374;8.452;2024-03-08T08:46:30;6.42;99.99
13496;DHT22;6820;49.374;8.452;2024-03-08T08:50:31;6.58;99.99
13496;DHT22;6820;49.374;8.452;2024-03-08T08:54:33;6.71;99.99
13496;DHT22;6820;49.374;8.452;2024-03-08T08:58:35;6.82;99.99
13496;DHT22;6820;49.374;8.452;2024-03-08T09:02:37;6.97;99.99
13496;DHT22;6820;49.374;8.452;2024-03-08T09:06:39;6.99;99.99
13496;DHT22;6820;49.374;8.452;2024-03-08T09:10:44;7.05;99.99
13496;DHT22;6820;49.374;8.452;2024-03-08T09:14:46;7.15;99.99
13496;DHT22;6820;49.374;8.452;2024-03-08T09:18:49;7.21;99.99
13496;DHT22;6820;49.374;8.452;2024-03-08T09:22:50;7.23;99.99
13496;DHT22;6820;49.374;8.452;2024-03-08T09:26:52;7.23;99.99
13496;DHT22;6820;49.374;8.452;2024-03-08T09:30:54;7.26;99.99
13496;DHT22;6820;49.374;8.452;2024-03-08T09:35:01;7.32;99.99
13496;DHT22;6820;49.374;8.452;2024-03-08T09:39:03;7.34;99.99
13496;DHT22;6820;49.374;8.452;2024-03-08T09:43:04;7.34;99.99
13496;DHT22;6820;49.374;8.452;2024-03-08T09:47:07;7.48;99.99
13496;DHT22;6820;49.374;8.452;2024-03-08T09:51:10;7.66;99.99
13496;DHT22;6820;49.374;8.452;2024-03-08T09:55:16;7.74;99.99
13496;DHT22;6820;49.374;8.452;2024-03-08T09:59:24;7.74;99.99
13496;DHT22;6820;49.374;8.452;2024-03-08T10:03:28;7.84;99.99
13496;DHT22;6820;49.374;8.452;2024-03-08T10:07:30;7.82;99.99
13496;DHT22;6820;49.374;8.452;2024-03-08T10:11:32;7.73;99.99
13496;DHT22;6820;49.374;8.452;2024-03-08T10:15:34;7.74;99.99
13496;DHT22;6820;49.374;8.452;2024-03-08T10:19:36;7.79;99.99
13496;DHT22;6820;49.374;8.452;2024-03-08T10:23:39;7.89;99.99
13496;DHT22;6820;49.374;8.452;2024-03-08T10:27:41;8.04;99.99
13496;DHT22;6820;49.374;8.452;2024-03-08T10:31:43;8.14;99.99
13496;DHT22;6820;49.374;8.452;2024-03-08T10:35:48;8.17;99.99
13496;DHT22;6820;49.374;8.452;2024-03-08T10:40:02;8.18;99.99
13496;DHT22;6820;49.374;8.452;2024-03-08T10:48:31;8.37;99.99
13496;DHT22;6820;49.374;8.452;2024-03-08T10:52:42;8.45;99.99
13496;DHT22;6820;49.374;8.452;2024-03-08T10:56:44;8.58;99.99
13496;DHT22;6820;49.374;8.452;2024-03-08T11:00:49;8.70;99.99
13496;DHT22;6820;49.374;8.452;2024-03-08T11:04:52;8.76;99.99
13496;DHT22;6820;49.374;8.452;2024-03-08T11:09:00;8.86;99.99
13496;DHT22;6820;49.374;8.452;2024-03-08T11:13:02;8.89;99.99
13496;DHT22;6820;49.374;8.452;2024-03-08T11:17:04;9.00;99.99
13496;DHT22;6820;49.374;8.452;2024-03-08T11:21:08;8.75;99.99
13496;DHT22;6820;49.374;8.452;2024-03-08T11:25:33;8.67;99.99
13496;DHT22;6820;49.374;8.452;2024-03-08T11:29:42;8.63;99.99
13496;DHT22;6820;49.374;8.452;2024-03-08T11:33:44;8.50;99.99
13496;DHT22;6820;49.374;8.452;2024-03-08T11:37:48;8.50;99.99
13496;DHT22;6820;49.374;8.452;2024-03-08T11:41:50;8.67;99.99
13496;DHT22;6820;49.374;8.452;2024-03-08T11:46:07;8.83;99.99
13496;DHT22;6820;49.374;8.452;2024-03-08T11:50:10;8.97;99.99
13496;DHT22;6820;49.374;8.452;2024-03-08T11:54:12;9.06;99.99
13496;DHT22;6820;49.374;8.452;2024-03-08T11:58:14;9.15;99.99
13496;DHT22;6820;49.374;8.452;2024-03-08T12:02:17;9.22;99.99
13496;DHT22;6820;49.374;8.452;2024-03-08T12:06:20;9.32;99.99
13496;DHT22;6820;49.374;8.452;2024-03-08T12:10:22;9.49;99.99
13496;DHT22;6820;49.374;8.452;2024-03-08T12:14:24;9.62;99.99
13496;DHT22;6820;49.374;8.452;2024-03-08T12:18:26;9.68;99.99
13496;DHT22;6820;49.374;8.452;2024-03-08T12:22:30;9.73;99.99
13496;DHT22;6820;49.374;8.452;2024-03-08T12:26:31;9.81;99.99
13496;DHT22;6820;49.374;8.452;2024-03-08T12:30:33;10.10;99.99
13496;DHT22;6820;49.374;8.452;2024-03-08T12:34:35;10.44;99.99
13496;DHT22;6820;49.374;8.452;2024-03-08T12:38:37;10.68;99.99
13496;DHT22;6820;49.374;8.452;2024-03-08T12:42:39;10.70;99.99
13496;DHT22;6820;49.374;8.452;2024-03-08T12:46:40;10.62;99.99
13496;DHT22;6820;49.374;8.452;2024-03-08T12:50:45;10.62;99.99
13496;DHT22;6820;49.374;8.452;2024-03-08T12:54:49;10.65;99.99
13496;DHT22;6820;49.374;8.452;2024-03-08T12:58:50;10.76;99.99
13496;DHT22;6820;49.374;8.452;2024-03-08T13:02:54;10.78;99.99
13496;DHT22;6820;49.374;8.452;2024-03-08T13:06:56;10.93;99.99
13496;DHT22;6820;49.374;8.452;2024-03-08T13:10:59;11.05;99.99
13496;DHT22;6820;49.374;8.452;2024-03-08T13:15:00;11.17;99.99
13496;DHT22;6820;49.374;8.452;2024-03-08T13:19:03;11.16;99.99
13496;DHT22;6820;49.374;8.452;2024-03-08T13:23:04;11.17;99.99
13496;DHT22;6820;49.374;8.452;2024-03-08T13:27:07;11.27;99.99
13496;DHT22;6820;49.374;8.452;2024-03-08T13:31:21;11.28;99.99
13496;DHT22;6820;49.374;8.452;2024-03-08T13:35:23;11.41;99.99
13496;DHT22;6820;49.374;8.452;2024-03-08T13:39:28;11.48;99.99
13496;DHT22;6820;49.374;8.452;2024-03-08T13:43:30;11.53;99.99
13496;DHT22;6820;49.374;8.452;2024-03-08T13:47:36;11.51;99.99
13496;DHT22;6820;49.374;8.452;2024-03-08T13:51:38;11.59;99.99
13496;DHT22;6820;49.374;8.452;2024-03-08T13:55:40;11.69;99.99
13496;DHT22;6820;49.374;8.452;2024-03-08T13:59:42;11.82;99.99
13496;DHT22;6820;49.374;8.452;2024-03-08T14:03:44;11.88;99.99
13496;DHT22;6820;49.374;8.452;2024-03-08T14:08:06;11.97;99.99
13496;DHT22;6820;49.374;8.452;2024-03-08T14:12:09;12.04;99.99
13496;DHT22;6820;49.374;8.452;2024-03-08T14:16:11;12.07;99.99
13496;DHT22;6820;49.374;8.452;2024-03-08T14:20:13;12.16;99.99
13496;DHT22;6820;49.374;8.452;2024-03-08T14:24:15;12.23;99.99
13496;DHT22;6820;49.374;8.452;2024-03-08T14:28:17;12.29;99.99
13496;DHT22;6820;49.374;8.452;2024-03-08T14:32:20;12.43;99.99
13496;DHT22;6820;49.374;8.452;2024-03-08T14:36:24;12.54;99.99
13496;DHT22;6820;49.374;8.452;2024-03-08T14:40:29;12.54;99.99
13496;DHT22;6820;49.374;8.452;2024-03-08T14:44:31;12.66;99.99
13496;DHT22;6820;49.374;8.452;2024-03-08T14:48:33;12.66;99.99
13496;DHT22;6820;49.374;8.452;2024-03-08T14:52:38;12.67;99.99
13496;DHT22;6820;49.374;8.452;2024-03-08T14:56:41;12.76;99.99
13496;DHT22;6820;49.374;8.452;2024-03-08T15:00:43;12.81;99.99
13496;DHT22;6820;49.374;8.452;2024-03-08T15:04:48;12.80;99.99
13496;DHT22;6820;49.374;8.452;2024-03-08T15:09:00;12.74;99.99
13496;DHT22;6820;49.374;8.452;2024-03-08T15:13:02;12.76;99.99
13496;DHT22;6820;49.374;8.452;2024-03-08T15:17:10;12.79;99.99
13496;DHT22;6820;49.374;8.452;2024-03-08T15:21:23;12.80;99.99
13496;DHT22;6820;49.374;8.452;2024-03-08T15:25:27;12.84;99.99
13496;DHT22;6820;49.374;8.452;2024-03-08T15:29:30;12.84;99.99
13496;DHT22;6820;49.374;8.452;2024-03-08T15:33:37;12.87;99.99
13496;DHT22;6820;49.374;8.452;2024-03-08T15:37:58;12.79;99.99
13496;DHT22;6820;49.374;8.452;2024-03-08T15:42:01;12.70;99.99
13496;DHT22;6820;49.374;8.452;2024-03-08T15:46:03;12.59;99.99
13496;DHT22;6820;49.374;8.452;2024-03-08T15:50:08;12.59;99.99
13496;DHT22;6820;49.374;8.452;2024-03-08T15:54:13;12.58;99.99
13496;DHT22;6820;49.374;8.452;2024-03-08T15:58:15;12.56;99.99
13496;DHT22;6820;49.374;8.452;2024-03-08T16:02:17;12.55;99.99
13496;DHT22;6820;49.374;8.452;2024-03-08T16:06:20;12.49;99.99
13496;DHT22;6820;49.374;8.452;2024-03-08T16:10:26;12.43;99.99
13496;DHT22;6820;49.374;8.452;2024-03-08T16:14:30;12.36;99.99
13496;DHT22;6820;49.374;8.452;2024-03-08T16:18:32;12.29;99.99
13496;DHT22;6820;49.374;8.452;2024-03-08T16:22:36;12.22;99.99
13496;DHT22;6820;49.374;8.452;2024-03-08T16:26:37;12.15;99.99
13496;DHT22;6820;49.374;8.452;2024-03-08T16:30:40;12.04;99.99
13496;DHT22;6820;49.374;8.452;2024-03-08T16:34:47;11.93;99.99
13496;DHT22;6820;49.374;8.452;2024-03-08T16:38:49;11.75;99.99
13496;DHT22;6820;49.374;8.452;2024-03-08T16:42:50;11.62;99.99
13496;DHT22;6820;49.374;8.452;2024-03-08T16:46:52;11.48;99.99
13496;DHT22;6820;49.374;8.452;2024-03-08T16:50:54;11.36;99.99
13496;DHT22;6820;49.374;8.452;2024-03-08T16:54:56;11.28;99.99
13496;DHT22;6820;49.374;8.452;2024-03-08T16:59:08;11.17;99.99
13496;DHT22;6820;49.374;8.452;2024-03-08T17:03:11;11.08;99.99
13496;DHT22;6820;49.374;8.452;2024-03-08T17:07:14;10.98;99.99
13496;DHT22;6820;49.374;8.452;2024-03-08T17:11:16;10.88;99.99
13496;DHT22;6820;49.374;8.452;2024-03-08T17:15:22;10.81;99.99
13496;DHT22;6820;49.374;8.452;2024-03-08T17:19:24;10.73;99.99
13496;DHT22;6820;49.374;8.452;2024-03-08T17:23:31;10.68;99.99
13496;DHT22;6820;49.374;8.452;2024-03-08T17:27:33;10.60;99.99
13496;DHT22;6820;49.374;8.452;2024-03-08T17:31:37;10.55;99.99
13496;DHT22;6820;49.374;8.452;2024-03-08T17:35:39;10.49;99.99
13496;DHT22;6820;49.374;8.452;2024-03-08T17:39:40;10.43;99.99
13496;DHT22;6820;49.374;8.452;2024-03-08T17:43:42;10.36;99.99
13496;DHT22;6820;49.374;8.452;2024-03-08T17:47:44;10.32;99.99
13496;DHT22;6820;49.374;8.452;2024-03-08T17:51:47;10.28;99.99
13496;DHT22;6820;49.374;8.452;2024-03-08T17:55:48;10.24;99.99
13496;DHT22;6820;49.374;8.452;2024-03-08T17:59:53;10.18;99.99
13496;DHT22;6820;49.374;8.452;2024-03-08T18:03:55;10.11;99.99
13496;DHT22;6820;49.374;8.452;2024-03-08T18:07:56;10.07;99.99
13496;DHT22;6820;49.374;8.452;2024-03-08T18:11:59;10.01;99.99
13496;DHT22;6820;49.374;8.452;2024-03-08T18:16:02;9.96;99.99
13496;DHT22;6820;49.374;8.452;2024-03-08T18:20:04;9.92;99.99
13496;DHT22;6820;49.374;8.452;2024-03-08T18:24:06;9.86;99.99
13496;DHT22;6820;49.374;8.452;2024-03-08T18:28:08;9.80;99.99
13496;DHT22;6820;49.374;8.452;2024-03-08T18:32:11;9.77;99.99
13496;DHT22;6820;49.374;8.452;2024-03-08T18:36:13;9.73;99.99
13496;DHT22;6820;49.374;8.452;2024-03-08T18:40:16;9.73;99.99
13496;DHT22;6820;49.374;8.452;2024-03-08T18:44:21;9.70;99.99
13496;DHT22;6820;49.374;8.452;2024-03-08T18:48:23;9.67;99.99
13496;DHT22;6820;49.374;8.452;2024-03-08T18:52:24;9.62;99.99
13496;DHT22;6820;49.374;8.452;2024-03-08T18:56:28;9.58;99.99
13496;DHT22;6820;49.374;8.452;2024-03-08T19:00:30;9.53;99.99
13496;DHT22;6820;49.374;8.452;2024-03-08T19:04:40;9.52;99.99
13496;DHT22;6820;49.374;8.452;2024-03-08T19:08:43;9.48;99.99
13496;DHT22;6820;49.374;8.452;2024-03-08T19:16:48;9.40;99.99
13496;DHT22;6820;49.374;8.452;2024-03-08T19:20:52;9.37;99.99
13496;DHT22;6820;49.374;8.452;2024-03-08T19:24:53;9.37;99.99
13496;DHT22;6820;49.374;8.452;2024-03-08T19:28:58;9.37;99.99
13496;DHT22;6820;49.374;8.452;2024-03-08T19:33:04;9.35;99.99
13496;DHT22;6820;49.374;8.452;2024-03-08T19:37:09;9.32;99.99
13496;DHT22;6820;49.374;8.452;2024-03-08T19:41:11;9.27;99.99
13496;DHT22;6820;49.374;8.452;2024-03-08T19:45:14;9.26;99.99
13496;DHT22;6820;49.374;8.452;2024-03-08T19:49:18;9.24;99.99
13496;DHT22;6820;49.374;8.452;2024-03-08T19:53:20;9.23;99.99
13496;DHT22;6820;49.374;8.452;2024-03-08T19:57:24;9.23;99.99
13496;DHT22;6820;49.374;8.452;2024-03-08T20:01:25;9.22;99.99
13496;DHT22;6820;49.374;8.452;2024-03-08T20:05:28;9.16;99.99
13496;DHT22;6820;49.374;8.452;2024-03-08T20:09:31;9.13;99.99
13496;DHT22;6820;49.374;8.452;2024-03-08T20:13:35;9.13;99.99
13496;DHT22;6820;49.374;8.452;2024-03-08T20:17:38;9.08;99.99
13496;DHT22;6820;49.374;8.452;2024-03-08T20:21:41;9.03;99.99
13496;DHT22;6820;49.374;8.452;2024-03-08T20:25:44;9.03;99.99
13496;DHT22;6820;49.374;8.452;2024-03-08T20:29:47;8.98;99.99
13496;DHT22;6820;49.374;8.452;2024-03-08T20:33:49;8.96;99.99
13496;DHT22;6820;49.374;8.452;2024-03-08T20:37:51;8.93;99.99
13496;DHT22;6820;49.374;8.452;2024-03-08T20:41:53;8.89;99.99
13496;DHT22;6820;49.374;8.452;2024-03-08T20:45:55;8.88;99.99
13496;DHT22;6820;49.374;8.452;2024-03-08T20:49:59;8.83;99.99
13496;DHT22;6820;49.374;8.452;2024-03-08T20:54:01;8.79;99.99
13496;DHT22;6820;49.374;8.452;2024-03-08T20:58:06;8.75;99.99
13496;DHT22;6820;49.374;8.452;2024-03-08T21:02:08;8.71;99.99
13496;DHT22;6820;49.374;8.452;2024-03-08T21:06:10;8.70;99.99
13496;DHT22;6820;49.374;8.452;2024-03-08T21:10:12;8.67;99.99
13496;DHT22;6820;49.374;8.452;2024-03-08T21:14:15;8.63;99.99
13496;DHT22;6820;49.374;8.452;2024-03-08T21:18:17;8.57;99.99
13496;DHT22;6820;49.374;8.452;2024-03-08T21:22:20;8.54;99.99
13496;DHT22;6820;49.374;8.452;2024-03-08T21:26:23;8.47;99.99
13496;DHT22;6820;49.374;8.452;2024-03-08T21:30:25;8.46;99.99
13496;DHT22;6820;49.374;8.452;2024-03-08T21:34:28;8.45;99.99
13496;DHT22;6820;49.374;8.452;2024-03-08T21:38:30;8.37;99.99
13496;DHT22;6820;49.374;8.452;2024-03-08T21:42:34;8.32;99.99
13496;DHT22;6820;49.374;8.452;2024-03-08T21:46:35;8.31;99.99
13496;DHT22;6820;49.374;8.452;2024-03-08T21:50:37;8.31;99.99
13496;DHT22;6820;49.374;8.452;2024-03-08T21:54:40;8.32;99.99
13496;DHT22;6820;49.374;8.452;2024-03-08T21:58:41;8.29;99.99
13496;DHT22;6820;49.374;8.452;2024-03-08T22:02:44;8.28;99.99
13496;DHT22;6820;49.374;8.452;2024-03-08T22:06:47;8.24;99.99
13496;DHT22;6820;49.374;8.452;2024-03-08T22:10:51;8.22;99.99
13496;DHT22;6820;49.374;8.452;2024-03-08T22:14:54;8.22;99.99
13496;DHT22;6820;49.374;8.452;2024-03-08T22:18:55;8.22;99.99
13496;DHT22;6820;49.374;8.452;2024-03-08T22:22:58;8.20;99.99
13496;DHT22;6820;49.374;8.452;2024-03-08T22:27:01;8.18;99.99
13496;DHT22;6820;49.374;8.452;2024-03-08T22:31:03;8.14;99.99
13496;DHT22;6820;49.374;8.452;2024-03-08T22:35:07;8.12;99.99
13496;DHT22;6820;49.374;8.452;2024-03-08T22:39:11;8.10;99.99
13496;DHT22;6820;49.374;8.452;2024-03-08T22:43:13;8.10;99.99
13496;DHT22;6820;49.374;8.452;2024-03-08T22:47:15;8.07;99.99
13496;DHT22;6820;49.374;8.452;2024-03-08T22:51:27;8.06;99.99
13496;DHT22;6820;49.374;8.452;2024-03-08T22:56:17;8.03;99.99
13496;DHT22;6820;49.374;8.452;2024-03-08T23:00:19;8.04;99.99
13496;DHT22;6820;49.374;8.452;2024-03-08T23:04:42;8.06;99.99
13496;DHT22;6820;49.374;8.452;2024-03-08T23:08:51;8.09;99.99
13496;DHT22;6820;49.374;8.452;2024-03-08T23:12:54;8.09;99.99
13496;DHT22;6820;49.374;8.452;2024-03-08T23:16:56;8.10;99.99
13496;DHT22;6820;49.374;8.452;2024-03-08T23:21:01;8.14;99.99
13496;DHT22;6820;49.374;8.452;2024-03-08T23:25:04;8.14;99.99
13496;DHT22;6820;49.374;8.452;2024-03-08T23:29:13;8.17;99.99
13496;DHT22;6820;49.374;8.452;2024-03-08T23:33:16;8.18;99.99
13496;DHT22;6820;49.374;8.452;2024-03-08T23:37:20;8.18;99.99
13496;DHT22;6820;49.374;8.452;2024-03-08T23:41:26;8.14;99.99
13496;DHT22;6820;49.374;8.452;2024-03-08T23:45:30;8.18;99.99
13496;DHT22;6820;49.374;8.452;2024-03-08T23:49:33;8.18;99.99
13496;DHT22;6820;49.374;8.452;2024-03-08T23:53:45;8.20;99.99
13496;DHT22;6820;49.374;8.452;2024-03-08T23:57:53;8.18;99.99
